Latest Weather Observations for Parawa West

IDS60801

Issued at 7:34 pm CDT Friday 30 January 2015 (issued every 30 minutes, with the page automatically refreshed every 10 minutes)

About weather observations | Map of weather stations | Latest weather observations for SA | Other Formats
Station Details ID: 023875 Name: SECOND VALLEY FOREST AWS Lat: -35.57 Lon: 138.29 Height: 341.0 m
Data from the previous 72 hours. | See also: Recent months at Parawa West
Date/Time
CDT
Temp
°C
App
Temp
°C
Dew
Point
Rel
Hum
%
Delta-T
°C
Wind Press
QNH
hPa
Press
MSL
hPa
Rain
since 9 am
mm
Dir
 
Spd
km/h
Gust
km/h
Spd
kts
Gust
kts
30/07:30pm 14.6 8.5 10.6 77 2.1 SSE 33 44 18 24 1015.3 1014.2 0.0
30/07:00pm 14.9 8.4 10.5 75 2.4 SSE 35 44 19 24 1015.1 1014.0 0.0
30/06:30pm 15.4 8.9 10.4 72 2.7 SSE 35 44 19 24 1015.2 1014.1 0.0
30/06:00pm 15.5 9.4 9.8 69 3.0 SSE 32 43 17 23 1015.2 1014.1 0.0
30/05:30pm 16.6 10.6 10.0 65 3.5 SSE 32 41 17 22 1015.6 1014.5 0.0
30/05:00pm 15.9 9.9 10.0 68 3.1 SSE 32 43 17 23 1015.8 1014.8 0.0
30/04:30pm 16.6 10.6 10.2 66 3.4 SSE 32 39 17 21 1015.8 1014.8 0.0
30/04:00pm 16.6 11.3 9.8 64 3.6 SSE 28 37 15 20 1015.9 1014.9 0.0
30/03:30pm 16.8 11.6 10.4 66 3.5 SSE 28 39 15 21 1015.9 1014.9 0.0
30/03:00pm 16.5 11.1 10.8 69 3.1 SSE 30 39 16 21 1016.2 1015.2 0.0
30/02:30pm 16.6 10.9 11.1 70 3.0 SSE 32 39 17 21 1016.5 1015.5 0.0
30/02:00pm 16.5 11.5 11.0 70 3.0 SSE 28 37 15 20 1017.0 1016.0 0.0
30/01:30pm 16.4 11.1 11.1 71 2.9 SSE 30 39 16 21 1017.0 1016.0 0.0
30/01:00pm 17.3 12.5 11.6 69 3.2 SE 28 37 15 20 1017.3 1016.2 0.0
30/12:30pm 17.6 13.0 10.9 65 3.7 SE 26 39 14 21 1017.6 1016.5 0.0
30/12:00pm 16.9 12.0 11.2 69 3.1 SE 28 33 15 18 1017.7 1016.6 0.0
30/11:30am 16.8 11.9 11.3 70 3.0 SE 28 35 15 19 1017.7 1016.6 0.0
30/11:00am 17.1 12.2 11.4 69 3.1 SE 28 35 15 19 1017.9 1016.8 0.0
30/10:30am 16.2 10.9 11.2 72 2.7 SE 30 37 16 20 1017.9 1016.8 0.0
30/10:00am 16.7 11.9 11.6 72 2.8 SE 28 39 15 21 1017.8 1016.7 0.0
30/09:30am 15.8 9.9 11.0 73 2.6 ESE 33 43 18 23 1017.6 1016.5 0.0
30/09:00am 15.7 9.7 10.9 73 2.6 SE 33 43 18 23 1017.7 1016.6 0.0
30/08:30am 15.1 10.1 10.9 76 2.3 ESE 28 39 15 21 1017.5 1016.4 0.0
30/08:00am 14.4 10.2 11.0 80 1.8 ESE 24 35 13 19 1017.5 1016.4 0.0
30/07:30am 13.6 10.1 10.8 83 1.5 SE 20 28 11 15 1017.3 1016.2 0.0
30/07:00am 12.9 9.4 10.8 87 1.1 ESE 20 28 11 15 1017.1 1016.1 0.0
30/06:30am 12.7 9.2 10.8 88 1.0 SE 20 28 11 15 1016.9 1015.9 0.0
30/06:00am 12.9 8.7 11.0 88 1.0 SE 24 30 13 16 1016.5 1015.5 0.0
30/05:30am 13.0 9.8 11.1 88 1.0 SE 19 28 10 15 1016.5 1015.5 0.0
30/05:00am 13.4 9.3 11.5 88 1.0 SE 24 30 13 16 1016.3 1015.3 0.0
30/04:30am 13.5 9.1 11.6 88 1.0 SE 26 32 14 17 1016.3 1015.3 0.0
30/04:00am 13.6 9.8 11.3 86 1.2 SE 22 26 12 14 1016.7 1015.7 0.0
30/03:30am 13.7 10.5 11.2 85 1.3 SE 19 24 10 13 1017.0 1016.0 0.0
30/03:00am 14.1 11.0 11.6 85 1.4 SE 19 22 10 12 1017.1 1016.1 0.0
30/02:30am 14.3 12.5 12.0 86 1.3 SE 13 19 7 10 1017.3 1016.2 0.0
30/02:00am 14.5 12.3 12.0 85 1.4 SE 15 22 8 12 1017.4 1016.3 0.0
30/01:30am 14.8 12.1 13.0 89 1.0 SE 19 28 10 15 1017.3 1016.2 0.0
30/01:00am 14.9 12.5 13.8 93 0.6 SSE 19 26 10 14 1017.4 1016.3 0.0
30/12:30am 14.8 12.0 14.2 96 0.3 SSE 22 30 12 16 1017.1 1016.1 0.0
30/12:00am 14.8 12.2 14.8 100 0.0 SSE 22 28 12 15 1017.0 1016.0 0.0
 
Date/Time
CDT
Temp
°C
App
Temp
°C
Dew
Point
Rel
Hum
%
Delta-T
°C
Wind Press
QNH
hPa
Press
MSL
hPa
Rain
since 9 am
mm
Dir
 
Spd
km/h
Gust
km/h
Spd
kts
Gust
kts
29/11:30pm 14.6 11.9 14.6 100 0.0 SSE 22 28 12 15 1017.3 1016.2 0.0
29/11:00pm 14.5 11.4 14.5 100 0.0 SSE 24 30 13 16 1017.5 1016.4 0.0
29/10:30pm 14.6 11.5 14.6 100 0.0 SSE 24 32 13 17 1017.7 1016.6 0.0
29/10:00pm 14.5 11.4 14.5 100 0.0 SSE 24 33 13 18 1017.8 1016.7 0.0
29/09:30pm 14.6 11.1 14.6 100 0.0 SSE 26 35 14 19 1017.6 1016.5 0.0
29/09:00pm 14.6 10.7 14.3 98 0.2 SSE 28 37 15 20 1017.4 1016.3 0.0
29/08:30pm 14.7 10.5 13.6 93 0.6 SSE 28 35 15 19 1017.5 1016.4 0.0
29/08:00pm 15.2 11.4 13.7 91 0.9 SSE 26 35 14 19 1017.5 1016.4 0.0
29/07:30pm 15.4 10.8 13.6 89 1.0 SSE 30 37 16 20 1017.3 1016.2 0.0
29/07:00pm 16.0 11.4 13.5 85 1.4 SSE 30 39 16 21 1016.9 1015.9 0.0
29/06:30pm 16.5 11.8 13.2 81 1.9 SSE 30 37 16 20 1016.9 1015.9 0.0
29/06:00pm 17.1 12.6 13.8 81 1.9 SSE 30 35 16 19 1017.0 1016.0 0.0
29/05:30pm 17.3 12.5 12.8 75 2.5 SSE 30 39 16 21 1017.0 1016.0 0.0
29/05:00pm 17.9 13.2 13.2 74 2.7 SE 30 37 16 20 1017.3 1016.2 0.0
29/04:30pm 18.3 13.2 13.0 71 3.0 SSE 32 39 17 21 1017.4 1016.3 0.0
29/04:00pm 18.8 14.2 12.3 66 3.7 SSE 28 37 15 20 1017.6 1016.5 0.0
29/03:30pm 18.9 15.0 12.2 65 3.8 SSE 24 35 13 19 1018.0 1016.9 0.0
29/03:00pm 20.0 16.0 11.8 59 4.6 SSE 24 35 13 19 1018.2 1017.2 0.0
29/02:30pm 19.9 15.6 10.6 55 5.1 SE 24 32 13 17 1018.2 1017.2 0.0
29/02:00pm 19.7 15.4 10.7 56 5.0 SSE 24 32 13 17 1018.3 1017.3 0.0
29/01:30pm 20.3 15.7 9.5 50 5.8 SE 24 33 13 18 1018.5 1017.5 0.0
29/01:00pm 19.6 14.4 8.9 50 5.7 SE 26 39 14 21 1018.7 1017.7 0.0
29/12:30pm 20.1 15.4 9.1 49 5.9 SE 24 35 13 19 1018.8 1017.8 0.0
29/12:00pm 19.9 14.8 9.2 50 5.7 ESE 26 33 14 18 1019.0 1018.0 0.0
29/11:30am 18.4 13.6 8.7 53 5.1 ESE 24 33 13 18 1019.1 1018.1 0.0
29/11:00am 18.0 12.4 8.8 55 4.9 ESE 28 33 15 18 1019.2 1018.2 0.0
29/10:30am 17.1 11.5 8.8 58 4.3 ESE 28 37 15 20 1019.2 1018.2 0.0
29/10:00am 16.2 10.3 9.2 63 3.7 ESE 30 39 16 21 1019.0 1018.0 0.0
29/09:30am 15.9 9.4 9.1 64 3.6 ESE 33 48 18 26 1018.8 1017.8 0.0
29/09:00am 15.8 9.7 9.9 68 3.1 ESE 32 44 17 24 1018.9 1017.9 -
29/08:30am 15.3 9.7 10.1 71 2.8 ESE 30 39 16 21 1018.8 1017.8 -
29/08:00am 14.4 8.2 9.4 72 2.6 ESE 32 39 17 21 1018.6 1017.6 -
29/07:30am 14.0 9.0 9.4 74 2.4 ESE 26 37 14 20 1018.4 1017.4 -
29/07:00am 13.6 8.6 9.5 76 2.1 ESE 26 35 14 19 1018.2 1017.2 -
29/06:30am 13.4 8.8 9.6 78 2.0 ESE 24 35 13 19 1017.9 1016.8 -
29/06:00am 13.7 8.8 9.9 78 2.0 ESE 26 35 14 19 1017.8 1016.7 -
29/05:30am 13.9 9.1 10.3 79 1.9 ESE 26 39 14 21 1017.5 1016.4 -
29/05:00am 13.9 9.3 10.9 82 1.6 ESE 26 37 14 20 1017.1 1016.1 -
29/04:30am 14.2 11.0 11.4 83 1.5 ESE 19 33 10 18 1017.4 1016.3 -
29/04:00am 14.7 11.1 11.7 82 1.6 ESE 22 30 12 16 1017.4 1016.3 -
29/03:30am 14.9 11.3 12.0 83 1.6 SE 22 30 12 16 1017.5 1016.4 -
29/03:00am 15.1 12.1 12.6 85 1.4 ESE 20 28 11 15 1017.4 1016.3 0.0
29/02:30am 15.1 12.6 14.0 93 0.6 SE 20 30 11 16 1017.4 1016.3 -
29/02:00am 15.3 12.5 14.3 94 0.6 SE 22 33 12 18 1017.4 1016.3 -
29/01:30am 15.4 12.0 14.8 96 0.3 SE 26 35 14 19 1017.3 1016.2 -
29/01:00am 15.4 12.2 15.4 100 0.0 SE 26 35 14 19 1017.3 1016.2 -
29/12:30am 15.4 12.2 15.4 100 0.0 SSE 26 35 14 19 1017.4 1016.3 -
29/12:00am 15.5 12.4 15.5 100 0.0 SSE 26 35 14 19 1017.6 1016.5 -
 
Date/Time
CDT
Temp
°C
App
Temp
°C
Dew
Point
Rel
Hum
%
Delta-T
°C
Wind Press
QNH
hPa
Press
MSL
hPa
Rain
since 9 am
mm
Dir
 
Spd
km/h
Gust
km/h
Spd
kts
Gust
kts
28/11:30pm 15.4 11.5 15.4 100 0.0 SE 30 39 16 21 1017.6 1016.5 -
28/11:00pm 15.2 11.6 15.2 100 0.0 SSE 28 41 15 22 1017.6 1016.5 -
28/10:30pm 15.1 12.2 15.1 100 0.0 SSE 24 33 13 18 1017.9 1016.8 -
28/10:00pm 15.0 10.9 15.0 100 0.0 SSE 30 41 16 22 1017.8 1016.7 -
28/09:30pm 14.9 11.2 14.9 100 0.0 SSE 28 44 15 24 1017.7 1016.6 -
28/09:00pm 14.8 11.0 14.8 100 0.0 SSE 28 37 15 20 1017.7 1016.6 0.0
28/08:30pm 14.6 10.0 14.6 100 0.0 SSE 32 43 17 23 1017.5 1016.4 -
28/08:00pm 14.8 10.9 14.5 98 0.2 SSE 28 41 15 22 1017.7 1016.6 -
28/07:30pm 14.8 9.9 13.8 94 0.6 SSE 32 43 17 23 1017.6 1016.5 -
28/07:00pm 15.0 10.4 13.4 90 0.9 SSE 30 43 16 23 1017.7 1016.6 -
28/06:30pm 15.3 10.2 13.0 86 1.3 SSE 32 44 17 24 1017.3 1016.2 -
28/06:00pm 15.8 9.2 12.7 82 1.7 SSE 39 52 21 28 1017.0 1016.0 -
28/05:30pm 16.5 10.3 12.5 77 2.2 SSE 37 50 20 27 1017.0 1016.0 -
28/05:00pm 16.5 9.4 12.1 75 2.4 SSE 41 54 22 29 1017.0 1016.0 -
28/04:30pm 16.9 9.6 11.6 71 2.9 SSE 41 57 22 31 1017.1 1016.1 -
28/04:00pm 16.8 9.0 11.1 69 3.1 SSE 43 56 23 30 1016.9 1015.9 -
28/03:45pm 16.6 8.6 11.1 70 3.0 SSE 44 63 24 34 1016.9 1015.9 -
28/03:30pm 16.7 8.9 11.0 69 3.1 SSE 43 57 23 31 1017.1 1016.1 -
28/03:11pm 16.6 8.5 10.2 66 3.4 SSE 43 61 23 33 1017.4 1016.3 -
28/03:00pm 16.5 8.4 9.9 65 3.5 SSE 43 57 23 31 1017.4 1016.3 -
28/02:34pm 17.1 9.9 10.7 66 3.5 SSE 39 59 21 32 1017.8 1016.7 -
28/02:30pm 16.5 8.9 10.4 67 3.3 SSE 41 57 22 31 1017.8 1016.7 -
28/10:00am 15.0 6.9 8.7 66 3.3 SE 41 54 22 29 1018.7 1017.7 0.0
28/09:30am 14.1 6.0 8.5 69 2.9 SE 41 56 22 30 1018.7 1017.7 0.0
28/09:00am 13.4 5.2 8.3 71 2.6 SE 41 59 22 32 1018.6 1017.6 0.0
28/08:49am 13.3 5.5 8.2 71 2.6 SE 39 61 21 33 1018.5 1017.5 0.0
28/08:30am 13.0 5.9 8.1 72 2.5 SE 35 48 19 26 1018.5 1017.5 0.0
28/08:00am 12.9 5.4 7.8 71 2.6 SE 37 52 20 28 1018.0 1016.9 0.0
28/07:30am 12.7 4.1 8.0 73 2.4 SE 43 54 23 29 1017.6 1016.5 0.0
28/07:00am 12.6 5.1 7.9 73 2.4 SE 37 50 20 27 1017.4 1016.3 0.0
28/06:30am 12.7 5.6 8.0 73 2.4 SE 35 46 19 25 1017.3 1016.2 0.0
28/06:00am 12.7 6.0 8.0 73 2.4 SE 33 46 18 25 1016.8 1015.8 0.0
28/05:30am 12.6 5.8 7.9 73 2.3 SE 33 52 18 28 1016.7 1015.7 0.0
28/05:28am 12.6 6.0 7.9 73 2.4 SE 32 52 17 28 1016.7 1015.7 0.0
28/05:00am 12.7 6.1 7.8 72 2.4 SE 32 41 17 22 1016.8 1015.8 0.0
28/04:30am 12.8 6.4 8.5 75 2.2 SE 32 41 17 22 1016.8 1015.8 0.0
28/04:00am 12.8 6.1 8.3 74 2.3 SE 33 43 18 23 1016.6 1015.6 0.0
28/03:30am 12.9 6.3 8.4 74 2.3 SE 33 46 18 25 1016.9 1015.9 0.0
28/03:00am 13.0 6.6 8.7 75 2.2 SE 32 43 17 23 1017.3 1016.2 0.0
28/02:30am 13.3 6.8 8.8 74 2.3 SE 33 44 18 24 1017.3 1016.2 0.0
28/02:00am 13.4 7.2 9.3 76 2.1 SE 32 43 17 23 1017.7 1016.6 0.0
28/01:30am 13.3 6.8 9.0 75 2.2 SE 33 46 18 25 1017.9 1016.8 0.0
28/01:00am 13.4 7.8 10.2 81 1.7 SE 30 43 16 23 1018.3 1017.3 0.0
28/12:30am 13.2 8.0 10.2 82 1.6 SSE 28 39 15 21 1018.6 1017.6 0.0
28/12:00am 13.0 7.0 10.0 82 1.6 SSE 32 43 17 23 1018.5 1017.5 0.0
 
Date/Time
CDT
Temp
°C
App
Temp
°C
Dew
Point
Rel
Hum
%
Delta-T
°C
Wind Press
QNH
hPa
Press
MSL
hPa
Rain
since 9 am
mm
Dir
 
Spd
km/h
Gust
km/h
Spd
kts
Gust
kts
27/11:30pm 13.0 6.9 9.6 80 1.8 SSE 32 44 17 24 1018.6 1017.6 0.0
27/11:00pm 13.2 7.4 9.5 78 1.9 SSE 30 43 16 23 1018.7 1017.7 0.0
27/10:30pm 13.1 7.2 9.2 77 2.0 SSE 30 43 16 23 1018.8 1017.8 0.0
27/10:00pm 13.1 7.1 8.6 74 2.3 SSE 30 44 16 24 1018.7 1017.7 0.0
27/09:30pm 13.0 6.1 8.7 75 2.2 SSE 35 46 19 25 1018.4 1017.4 0.0
27/09:00pm 13.1 6.7 9.2 77 2.0 SSE 33 46 18 25 1018.2 1017.2 0.0
27/08:30pm 13.1 5.7 8.4 73 2.4 SSE 37 54 20 29 1018.0 1016.9 0.0
27/08:00pm 13.3 6.4 9.0 75 2.2 SSE 35 50 19 27 1017.7 1016.6 0.0

Other Formats:

Comma delimited format used in spreadsheet applications
http://www.bom.gov.au/fwo/IDS60801/IDS60801.94811.axf

JavaScript Object Notation format (JSON) in row-major order
http://www.bom.gov.au/fwo/IDS60801/IDS60801.94811.json